Time;durP1;ratioP1;P1;durP2;ratioP2;P2;SDS_P1;SDS_P2;PMS_P1;PMS_P2;Temp;Humidity;BMP_temperature;BMP_pressure;BME280_temperature;BME280_humidity;BME280_pressure;Samples;Min_cycle;Max_cycle;Signal;HPM_P1;HPM_P2
2021/08/29 00:01:03;;;;;;;4.18;3.40;;;;;;;;;;4962777;28;20254;-86
2021/08/29 00:03:28;;;;;;;6.40;3.65;;;;;;;;;;4967755;28;20070;-87
2021/08/29 00:05:54;;;;;;;6.45;3.30;;;;;;;;;;4974439;28;20058;-86
2021/08/29 00:08:19;;;;;;;6.65;3.85;;;;;;;;;;4968132;28;20019;-86
2021/08/29 00:10:44;;;;;;;6.23;3.40;;;;;;;;;;4975014;28;20106;-86
2021/08/29 00:13:10;;;;;;;6.75;3.40;;;;;;;;;;4974719;28;20324;-86
2021/08/29 00:15:35;;;;;;;6.60;4.15;;;;;;;;;;4960823;28;20023;-86
2021/08/29 00:18:01;;;;;;;4.15;3.25;;;;;;;;;;4956339;28;20497;-85
2021/08/29 00:20:26;;;;;;;4.30;3.50;;;;;;;;;;4964775;28;20074;-86
2021/08/29 00:22:51;;;;;;;5.60;3.83;;;;;;;;;;4973884;28;20559;-85
2021/08/29 00:25:17;;;;;;;5.40;3.47;;;;;;;;;;4967610;28;20346;-85
2021/08/29 00:27:42;;;;;;;6.50;3.83;;;;;;;;;;4965767;28;20109;-85
2021/08/29 00:30:08;;;;;;;6.82;3.63;;;;;;;;;;4958329;28;20063;-86
2021/08/29 00:32:33;;;;;;;7.35;4.10;;;;;;;;;;4962601;28;20020;-86
2021/08/29 00:34:58;;;;;;;6.87;3.60;;;;;;;;;;4951506;28;20015;-85
2021/08/29 00:37:23;;;;;;;4.03;3.03;;;;;;;;;;4954960;28;20263;-85
2021/08/29 00:39:49;;;;;;;5.27;3.73;;;;;;;;;;4953645;28;20262;-86
2021/08/29 00:42:14;;;;;;;5.60;3.77;;;;;;;;;;4956608;28;20243;-86
2021/08/29 00:44:39;;;;;;;6.13;4.03;;;;;;;;;;4958181;28;20353;-87
2021/08/29 00:47:05;;;;;;;6.38;3.95;;;;;;;;;;4968833;28;20082;-86
2021/08/29 00:49:31;;;;;;;7.18;3.90;;;;;;;;;;4955933;28;20368;-86
2021/08/29 00:51:59;;;;;;;5.53;3.50;;;;;;;;;;4956709;28;20027;-86
2021/08/29 00:54:27;;;;;;;5.32;3.63;;;;;;;;;;4973149;28;20879;-86
2021/08/29 00:56:53;;;;;;;5.32;3.30;;;;;;;;;;4960181;28;20027;-87
2021/08/29 00:59:18;;;;;;;5.90;3.95;;;;;;;;;;4954465;28;20037;-87
2021/08/29 01:01:47;;;;;;;6.57;3.78;;;;;;;;;;4954568;28;20087;-87
2021/08/29 01:04:21;;;;;;;6.63;3.30;;;;;;;;;;4973188;28;20046;-87
2021/08/29 01:06:50;;;;;;;5.63;3.88;;;;;;;;;;4974447;28;20409;-88
2021/08/29 01:09:17;;;;;;;5.38;3.58;;;;;;;;;;4992330;28;20023;-87
2021/08/29 01:11:49;;;;;;;5.05;3.15;;;;;;;;;;4986723;28;20019;-87
2021/08/29 01:14:19;;;;;;;5.95;3.70;;;;;;;;;;4976426;28;20414;-87
2021/08/29 01:16:45;;;;;;;4.55;3.50;;;;;;;;;;4967866;28;20359;-86
2021/08/29 01:19:12;;;;;;;4.72;3.42;;;;;;;;;;4972096;28;20026;-88
2021/08/29 01:21:37;;;;;;;4.85;3.33;;;;;;;;;;5002172;28;20425;-88
2021/08/29 01:24:04;;;;;;;5.85;3.30;;;;;;;;;;4970879;28;20018;-87
2021/08/29 01:26:41;;;;;;;4.63;3.67;;;;;;;;;;4960327;28;20373;-87
2021/08/29 01:29:07;;;;;;;8.15;3.30;;;;;;;;;;4965106;28;20037;-87
2021/08/29 01:31:34;;;;;;;5.63;3.72;;;;;;;;;;4967879;28;20496;-87
2021/08/29 01:34:03;;;;;;;5.53;3.97;;;;;;;;;;4962331;28;20749;-87
2021/08/29 01:36:30;;;;;;;6.35;3.50;;;;;;;;;;4967123;28;20695;-86
2021/08/29 01:38:56;;;;;;;5.10;3.53;;;;;;;;;;4973920;28;20030;-88
2021/08/29 01:41:22;;;;;;;4.90;3.63;;;;;;;;;;5004945;28;20035;-86
2021/08/29 01:43:48;;;;;;;5.90;3.30;;;;;;;;;;4960531;28;20422;-86
2021/08/29 01:46:14;;;;;;;5.28;3.30;;;;;;;;;;4954216;28;20027;-87
2021/08/29 01:48:40;;;;;;;5.38;3.72;;;;;;;;;;4965609;28;20023;-86
2021/08/29 01:51:05;;;;;;;5.05;3.78;;;;;;;;;;4954360;28;20051;-87
2021/08/29 01:53:31;;;;;;;6.25;3.88;;;;;;;;;;4961278;28;20023;-87
2021/08/29 01:55:56;;;;;;;5.97;3.28;;;;;;;;;;4969187;28;20030;-88
2021/08/29 01:58:21;;;;;;;4.97;3.40;;;;;;;;;;4958681;28;20103;-86
2021/08/29 02:00:52;;;;;;;5.23;3.73;;;;;;;;;;4958758;28;20062;-87
2021/08/29 02:03:18;;;;;;;4.57;3.45;;;;;;;;;;4972762;28;20645;-86
2021/08/29 02:05:44;;;;;;;6.35;3.30;;;;;;;;;;4972814;28;20026;-87
2021/08/29 02:08:09;;;;;;;4.97;3.45;;;;;;;;;;4972378;28;20723;-86
2021/08/29 02:10:34;;;;;;;5.63;3.80;;;;;;;;;;4953968;28;20115;-88
2021/08/29 02:13:03;;;;;;;6.03;4.03;;;;;;;;;;4952181;28;20699;-88
2021/08/29 02:15:30;;;;;;;5.45;3.88;;;;;;;;;;4953914;28;20283;-87
2021/08/29 02:17:57;;;;;;;5.50;3.75;;;;;;;;;;4972550;28;20315;-89
2021/08/29 02:20:24;;;;;;;4.78;3.40;;;;;;;;;;4973591;28;20410;-89
2021/08/29 02:22:51;;;;;;;5.82;3.33;;;;;;;;;;4967755;28;20110;-89
2021/08/29 02:25:16;;;;;;;5.65;3.53;;;;;;;;;;4964126;28;20051;-88
2021/08/29 02:27:42;;;;;;;4.38;3.65;;;;;;;;;;4968804;28;20023;-89
2021/08/29 02:30:08;;;;;;;5.78;4.07;;;;;;;;;;4996508;28;20409;-88
2021/08/29 02:32:40;;;;;;;4.38;3.20;;;;;;;;;;4962986;28;20105;-89
2021/08/29 02:35:06;;;;;;;7.60;4.00;;;;;;;;;;4994792;28;20045;-90
2021/08/29 02:37:32;;;;;;;6.53;4.20;;;;;;;;;;4960360;28;20561;-90
2021/08/29 02:39:57;;;;;;;5.93;3.58;;;;;;;;;;4963400;28;20102;-89
2021/08/29 02:42:23;;;;;;;5.65;3.88;;;;;;;;;;4957895;28;20023;-88
2021/08/29 02:44:49;;;;;;;6.32;3.83;;;;;;;;;;4958055;28;20027;-88
2021/08/29 02:47:14;;;;;;;4.95;3.78;;;;;;;;;;4966728;28;20023;-88
2021/08/29 02:49:40;;;;;;;7.28;4.38;;;;;;;;;;4941415;29;20019;-88
2021/08/29 02:52:05;;;;;;;7.18;4.07;;;;;;;;;;4939004;28;20047;-89
2021/08/29 02:54:32;;;;;;;5.53;3.65;;;;;;;;;;4966498;28;20700;-89
2021/08/29 02:56:58;;;;;;;5.50;3.50;;;;;;;;;;4949435;28;20121;-88
2021/08/29 02:59:24;;;;;;;5.93;4.00;;;;;;;;;;4959664;28;20122;-88
2021/08/29 03:01:49;;;;;;;5.47;3.70;;;;;;;;;;4953153;28;20030;-87
2021/08/29 03:04:14;;;;;;;5.10;3.60;;;;;;;;;;4965951;28;20038;-88
2021/08/29 03:06:40;;;;;;;5.53;3.72;;;;;;;;;;4960625;28;20027;-88
2021/08/29 03:09:05;;;;;;;7.05;4.47;;;;;;;;;;4961944;28;20015;-88
2021/08/29 03:11:31;;;;;;;5.15;3.63;;;;;;;;;;4960270;28;20031;-88
2021/08/29 03:13:57;;;;;;;7.82;3.70;;;;;;;;;;4946320;28;20042;-87
2021/08/29 03:16:22;;;;;;;6.57;4.07;;;;;;;;;;4959392;28;20020;-87
2021/08/29 03:18:48;;;;;;;5.93;3.55;;;;;;;;;;4952844;28;20042;-86
2021/08/29 03:21:13;;;;;;;5.15;4.00;;;;;;;;;;4941163;28;20022;-87
2021/08/29 03:23:39;;;;;;;5.50;3.47;;;;;;;;;;4960763;28;20026;-88
2021/08/29 03:26:04;;;;;;;6.85;3.78;;;;;;;;;;4959783;28;20070;-88
2021/08/29 03:28:30;;;;;;;8.48;4.85;;;;;;;;;;4952796;28;20082;-87
2021/08/29 03:30:55;;;;;;;8.43;5.32;;;;;;;;;;4942242;28;20030;-87
2021/08/29 03:33:22;;;;;;;8.13;4.38;;;;;;;;;;4963225;28;20011;-88
2021/08/29 03:35:47;;;;;;;9.32;5.43;;;;;;;;;;4949506;28;20019;-87
2021/08/29 03:38:16;;;;;;;7.15;4.65;;;;;;;;;;4965883;28;20031;-89
2021/08/29 03:40:42;;;;;;;6.73;4.73;;;;;;;;;;4973705;28;20025;-88
2021/08/29 03:43:07;;;;;;;7.72;4.10;;;;;;;;;;4951383;28;20051;-89
2021/08/29 03:45:33;;;;;;;5.05;3.47;;;;;;;;;;4972944;28;20109;-88
2021/08/29 03:47:59;;;;;;;7.45;4.50;;;;;;;;;;4972067;28;20051;-88
2021/08/29 03:50:25;;;;;;;9.90;4.75;;;;;;;;;;4971668;28;20049;-88
2021/08/29 03:52:50;;;;;;;8.30;3.83;;;;;;;;;;4971739;28;20485;-88
2021/08/29 03:55:16;;;;;;;6.13;4.40;;;;;;;;;;4954584;28;20033;-87
2021/08/29 03:57:41;;;;;;;5.97;4.53;;;;;;;;;;4971864;28;20057;-88
2021/08/29 04:00:07;;;;;;;8.57;5.00;;;;;;;;;;4970874;28;20074;-88
2021/08/29 04:02:32;;;;;;;8.20;4.40;;;;;;;;;;4971392;28;20031;-88
2021/08/29 04:04:57;;;;;;;9.55;4.68;;;;;;;;;;4971430;28;20028;-87
2021/08/29 04:07:24;;;;;;;6.80;4.05;;;;;;;;;;4970745;28;20023;-86
2021/08/29 04:09:49;;;;;;;8.45;4.32;;;;;;;;;;4968798;28;20033;-88
2021/08/29 04:12:15;;;;;;;6.32;4.72;;;;;;;;;;4970548;28;20121;-88
2021/08/29 04:14:40;;;;;;;6.93;4.30;;;;;;;;;;4970703;28;20073;-87
2021/08/29 04:17:07;;;;;;;9.68;4.63;;;;;;;;;;4970981;28;20073;-87
2021/08/29 04:19:34;;;;;;;3.97;3.53;;;;;;;;;;4970648;28;20377;-87
2021/08/29 04:21:59;;;;;;;7.03;4.03;;;;;;;;;;4970881;28;20027;-89
2021/08/29 04:24:24;;;;;;;9.13;4.90;;;;;;;;;;4971702;28;20053;-89
2021/08/29 04:26:50;;;;;;;9.77;5.07;;;;;;;;;;4971889;28;20105;-88
2021/08/29 04:29:15;;;;;;;9.18;4.90;;;;;;;;;;4970471;28;20054;-89
2021/08/29 04:31:44;;;;;;;9.43;5.25;;;;;;;;;;4969781;28;20516;-87
2021/08/29 04:34:09;;;;;;;6.72;3.70;;;;;;;;;;4969587;28;20178;-88
2021/08/29 04:36:35;;;;;;;4.78;3.88;;;;;;;;;;4973713;28;20050;-87
2021/08/29 04:39:03;;;;;;;7.13;4.43;;;;;;;;;;4965863;28;20374;-88
2021/08/29 04:41:29;;;;;;;6.60;4.65;;;;;;;;;;4961999;28;20378;-88
2021/08/29 04:43:54;;;;;;;7.78;5.35;;;;;;;;;;4966957;28;20051;-89
2021/08/29 04:46:19;;;;;;;6.70;4.32;;;;;;;;;;4961633;28;20055;-88
2021/08/29 04:48:44;;;;;;;7.03;3.80;;;;;;;;;;4957027;28;20033;-88
2021/08/29 04:51:10;;;;;;;11.43;4.78;;;;;;;;;;4960586;28;20019;-88
2021/08/29 04:53:35;;;;;;;5.97;4.30;;;;;;;;;;4944853;29;20038;-87
2021/08/29 04:56:00;;;;;;;7.30;4.57;;;;;;;;;;4960558;28;20294;-87
2021/08/29 04:58:25;;;;;;;8.18;4.63;;;;;;;;;;4962591;28;20259;-87
2021/08/29 05:00:51;;;;;;;7.67;4.47;;;;;;;;;;4968208;28;20081;-86
2021/08/29 05:03:16;;;;;;;8.05;4.40;;;;;;;;;;4965741;28;20342;-87
2021/08/29 05:05:41;;;;;;;6.85;4.20;;;;;;;;;;4965921;28;20030;-87
2021/08/29 05:08:07;;;;;;;7.53;4.35;;;;;;;;;;4956226;28;20078;-88
2021/08/29 05:10:32;;;;;;;6.82;4.85;;;;;;;;;;4971467;28;20035;-87
2021/08/29 05:12:57;;;;;;;6.60;4.60;;;;;;;;;;4955974;28;20053;-88
2021/08/29 05:15:23;;;;;;;7.83;5.10;;;;;;;;;;4958013;28;20270;-88
2021/08/29 05:17:48;;;;;;;6.83;3.93;;;;;;;;;;4960759;28;20263;-87
2021/08/29 05:20:13;;;;;;;7.50;3.90;;;;;;;;;;4936672;29;20039;-88
2021/08/29 05:22:39;;;;;;;6.53;4.80;;;;;;;;;;4953399;28;20286;-88
2021/08/29 05:25:04;;;;;;;6.60;4.13;;;;;;;;;;4953813;28;20031;-87
2021/08/29 05:27:30;;;;;;;6.53;3.92;;;;;;;;;;4954390;28;20042;-87
2021/08/29 05:29:55;;;;;;;6.88;5.00;;;;;;;;;;4956372;28;20019;-87
2021/08/29 05:32:20;;;;;;;8.80;4.72;;;;;;;;;;4967603;28;20023;-87
2021/08/29 05:34:48;;;;;;;7.63;4.15;;;;;;;;;;4943794;28;20019;-86
2021/08/29 05:37:13;;;;;;;8.00;4.35;;;;;;;;;;4954086;28;20410;-88
2021/08/29 05:39:39;;;;;;;6.00;4.07;;;;;;;;;;4958835;28;20028;-89
2021/08/29 05:42:04;;;;;;;8.50;4.18;;;;;;;;;;4955201;28;20278;-89
2021/08/29 05:44:30;;;;;;;6.68;4.40;;;;;;;;;;4978617;28;20042;-87
2021/08/29 05:46:55;;;;;;;9.35;5.03;;;;;;;;;;4971096;28;20033;-86
2021/08/29 05:49:20;;;;;;;6.77;4.23;;;;;;;;;;4973584;28;20070;-89
2021/08/29 05:51:45;;;;;;;9.25;4.53;;;;;;;;;;4973326;28;20090;-87
2021/08/29 05:54:11;;;;;;;7.85;4.50;;;;;;;;;;4973492;28;20031;-88
2021/08/29 05:56:36;;;;;;;7.38;3.95;;;;;;;;;;4972562;28;20026;-87
2021/08/29 05:59:01;;;;;;;7.10;4.17;;;;;;;;;;4973347;28;20097;-87
2021/08/29 06:01:26;;;;;;;5.60;3.47;;;;;;;;;;4954937;28;20015;-86
2021/08/29 06:03:51;;;;;;;4.83;3.47;;;;;;;;;;4972771;28;20030;-86
2021/08/29 06:06:17;;;;;;;4.53;3.20;;;;;;;;;;4972143;28;20267;-84
2021/08/29 06:08:42;;;;;;;6.03;3.60;;;;;;;;;;4971484;28;20465;-85
2021/08/29 06:11:08;;;;;;;4.33;3.37;;;;;;;;;;4967539;28;20273;-86
2021/08/29 06:13:34;;;;;;;5.90;3.70;;;;;;;;;;4975084;28;20250;-87
2021/08/29 06:15:59;;;;;;;7.68;4.20;;;;;;;;;;4971140;28;20110;-85
2021/08/29 06:18:25;;;;;;;4.13;3.00;;;;;;;;;;4971734;28;20034;-85
2021/08/29 06:20:50;;;;;;;5.88;2.90;;;;;;;;;;4952686;28;20246;-84
2021/08/29 06:23:16;;;;;;;6.32;3.05;;;;;;;;;;4967877;28;20089;-85
2021/08/29 06:25:41;;;;;;;4.03;3.13;;;;;;;;;;4971544;28;20026;-85
2021/08/29 06:28:06;;;;;;;3.87;3.13;;;;;;;;;;4971492;28;20462;-85
2021/08/29 06:30:32;;;;;;;4.53;2.95;;;;;;;;;;4969423;28;20750;-85
2021/08/29 06:32:58;;;;;;;2.97;2.30;;;;;;;;;;4971360;28;20397;-87
2021/08/29 06:35:23;;;;;;;2.95;2.20;;;;;;;;;;4971569;28;20023;-85
2021/08/29 06:37:48;;;;;;;2.28;1.90;;;;;;;;;;4971847;28;20019;-85
2021/08/29 06:40:14;;;;;;;4.37;2.27;;;;;;;;;;4969997;28;20085;-86
2021/08/29 06:42:41;;;;;;;2.25;2.03;;;;;;;;;;4971193;28;20678;-84
2021/08/29 06:45:07;;;;;;;2.35;1.70;;;;;;;;;;4969915;28;20078;-86
2021/08/29 06:47:32;;;;;;;3.22;2.22;;;;;;;;;;4965928;28;20027;-85
2021/08/29 06:49:57;;;;;;;8.45;1.98;;;;;;;;;;4952906;28;20027;-87
2021/08/29 06:52:23;;;;;;;2.00;1.80;;;;;;;;;;4952576;28;20119;-88
2021/08/29 06:54:48;;;;;;;3.60;2.55;;;;;;;;;;4962888;28;20337;-87
2021/08/29 06:57:13;;;;;;;3.83;2.22;;;;;;;;;;4958767;28;20019;-87
2021/08/29 06:59:39;;;;;;;2.13;1.40;;;;;;;;;;4958316;28;20020;-87
2021/08/29 07:02:04;;;;;;;3.00;2.33;;;;;;;;;;4962181;28;20112;-86
2021/08/29 07:04:29;;;;;;;3.08;1.95;;;;;;;;;;4953988;28;20262;-87
2021/08/29 07:06:55;;;;;;;2.35;1.63;;;;;;;;;;4955114;28;20027;-85
2021/08/29 07:09:20;;;;;;;3.83;2.00;;;;;;;;;;4959389;28;20121;-87
2021/08/29 07:11:45;;;;;;;1.75;1.58;;;;;;;;;;4968303;28;20034;-84
2021/08/29 07:14:11;;;;;;;3.47;2.00;;;;;;;;;;4963541;28;20026;-85
2021/08/29 07:16:36;;;;;;;2.88;2.30;;;;;;;;;;4935131;28;20255;-84
2021/08/29 07:19:01;;;;;;;3.70;1.53;;;;;;;;;;4971160;28;20023;-86
2021/08/29 07:21:27;;;;;;;1.88;1.50;;;;;;;;;;4951950;28;20761;-88
2021/08/29 07:23:52;;;;;;;3.38;1.80;;;;;;;;;;4960992;28;20031;-87
2021/08/29 07:26:17;;;;;;;3.67;2.00;;;;;;;;;;4953328;28;20110;-85
2021/08/29 07:28:43;;;;;;;2.87;1.63;;;;;;;;;;4963138;28;20011;-85
2021/08/29 07:31:09;;;;;;;3.15;1.73;;;;;;;;;;4948941;28;20104;-86
2021/08/29 07:33:34;;;;;;;2.75;1.80;;;;;;;;;;4960716;28;20027;-86
2021/08/29 07:36:00;;;;;;;3.15;1.38;;;;;;;;;;4952477;28;20011;-88
2021/08/29 07:38:26;;;;;;;2.67;2.17;;;;;;;;;;4954857;28;20112;-87
2021/08/29 07:40:51;;;;;;;2.63;1.70;;;;;;;;;;4959457;28;20490;-89
2021/08/29 07:43:17;;;;;;;1.90;1.30;;;;;;;;;;4944453;28;20066;-85
2021/08/29 07:45:42;;;;;;;2.83;1.60;;;;;;;;;;4971439;28;20038;-86
2021/08/29 07:48:07;;;;;;;8.20;2.13;;;;;;;;;;4972307;28;20031;-88
2021/08/29 07:50:33;;;;;;;1.67;1.30;;;;;;;;;;4974189;28;20106;-88
2021/08/29 07:52:58;;;;;;;2.53;1.52;;;;;;;;;;4972869;28;21023;-88
2021/08/29 07:55:23;;;;;;;1.77;1.40;;;;;;;;;;4973008;28;20025;-87
2021/08/29 07:57:49;;;;;;;1.42;1.33;;;;;;;;;;4970919;28;20037;-85
2021/08/29 08:00:14;;;;;;;1.40;1.30;;;;;;;;;;4959344;28;20058;-87
2021/08/29 08:02:40;;;;;;;1.70;1.40;;;;;;;;;;4970582;28;20034;-86
2021/08/29 08:05:05;;;;;;;2.00;1.30;;;;;;;;;;4967801;28;20106;-87
2021/08/29 08:07:30;;;;;;;1.88;1.40;;;;;;;;;;4971019;28;20031;-85
2021/08/29 08:09:56;;;;;;;1.77;1.40;;;;;;;;;;4971124;28;20022;-86
2021/08/29 08:12:21;;;;;;;2.03;1.85;;;;;;;;;;4974470;28;20027;-85
2021/08/29 08:14:47;;;;;;;2.67;1.80;;;;;;;;;;4973840;28;20027;-86
2021/08/29 08:17:12;;;;;;;1.92;1.30;;;;;;;;;;4975650;28;20358;-86
2021/08/29 08:19:37;;;;;;;1.30;1.20;;;;;;;;;;4974247;28;20029;-85
2021/08/29 08:22:03;;;;;;;1.75;1.50;;;;;;;;;;4973652;28;20490;-84
2021/08/29 08:24:28;;;;;;;3.67;1.70;;;;;;;;;;4975173;28;20097;-86
2021/08/29 08:26:53;;;;;;;2.40;1.20;;;;;;;;;;4973413;28;20466;-84
2021/08/29 08:29:18;;;;;;;2.10;1.57;;;;;;;;;;4972539;28;20274;-86
2021/08/29 08:31:44;;;;;;;3.25;1.70;;;;;;;;;;4974765;28;20285;-86
2021/08/29 08:34:09;;;;;;;3.03;1.73;;;;;;;;;;4974766;28;20030;-85
2021/08/29 08:36:34;;;;;;;1.67;1.30;;;;;;;;;;4973687;28;20106;-86
2021/08/29 08:39:00;;;;;;;1.05;1.05;;;;;;;;;;4973962;28;20058;-86
2021/08/29 08:41:26;;;;;;;6.53;1.92;;;;;;;;;;4974068;28;20023;-84
2021/08/29 08:43:51;;;;;;;1.75;1.17;;;;;;;;;;4972537;28;20047;-84
2021/08/29 08:46:18;;;;;;;1.98;1.15;;;;;;;;;;4993104;28;20035;-84
2021/08/29 08:48:45;;;;;;;3.03;1.45;;;;;;;;;;4954375;28;20370;-84
2021/08/29 08:51:11;;;;;;;4.28;1.73;;;;;;;;;;4954267;28;20038;-85
2021/08/29 08:53:39;;;;;;;4.95;1.80;;;;;;;;;;4954211;28;20497;-86
2021/08/29 08:56:05;;;;;;;1.70;1.60;;;;;;;;;;4954259;28;20389;-84
2021/08/29 08:58:30;;;;;;;2.13;1.77;;;;;;;;;;4960749;28;20119;-84
2021/08/29 09:00:56;;;;;;;1.95;1.80;;;;;;;;;;4962362;28;20019;-84
2021/08/29 09:03:21;;;;;;;3.90;2.50;;;;;;;;;;4972545;28;20015;-85
2021/08/29 09:05:47;;;;;;;6.97;2.38;;;;;;;;;;4971907;28;20249;-84
2021/08/29 09:08:12;;;;;;;4.75;2.65;;;;;;;;;;4965300;28;20034;-85
2021/08/29 09:10:38;;;;;;;4.47;2.78;;;;;;;;;;4954123;28;20027;-83
2021/08/29 09:13:04;;;;;;;4.07;2.47;;;;;;;;;;4958420;28;20059;-84
2021/08/29 09:15:30;;;;;;;2.85;2.42;;;;;;;;;;4953670;28;20382;-84
2021/08/29 09:17:56;;;;;;;5.53;2.72;;;;;;;;;;4953322;28;20089;-85
2021/08/29 09:20:28;;;;;;;3.45;2.78;;;;;;;;;;4966351;28;20547;-85
2021/08/29 09:22:58;;;;;;;4.13;2.53;;;;;;;;;;4972348;28;20413;-84
2021/08/29 09:25:24;;;;;;;2.80;2.30;;;;;;;;;;4971999;28;20344;-85
2021/08/29 09:27:50;;;;;;;3.47;2.78;;;;;;;;;;4968477;28;20034;-85
2021/08/29 09:30:17;;;;;;;5.57;2.80;;;;;;;;;;4956697;28;20027;-89
2021/08/29 09:32:46;;;;;;;6.53;2.85;;;;;;;;;;4955680;28;20031;-85
2021/08/29 09:35:11;;;;;;;3.65;2.72;;;;;;;;;;4966239;28;20380;-85
2021/08/29 09:37:40;;;;;;;6.50;3.13;;;;;;;;;;4955503;28;20106;-86
2021/08/29 09:40:13;;;;;;;4.93;2.60;;;;;;;;;;4958981;28;20438;-87
2021/08/29 09:42:44;;;;;;;3.50;2.58;;;;;;;;;;4972765;28;20287;-87
2021/08/29 09:45:18;;;;;;;4.28;2.70;;;;;;;;;;4963069;28;20383;-86
2021/08/29 09:47:43;;;;;;;4.88;3.13;;;;;;;;;;4969990;28;20585;-86
2021/08/29 09:50:09;;;;;;;4.23;3.43;;;;;;;;;;4998979;28;20065;-86
2021/08/29 09:52:34;;;;;;;7.03;3.10;;;;;;;;;;4959563;28;20033;-86
2021/08/29 09:54:59;;;;;;;4.68;3.33;;;;;;;;;;4972149;28;20052;-86
2021/08/29 09:57:25;;;;;;;4.20;2.73;;;;;;;;;;4956227;28;20011;-85
2021/08/29 09:59:51;;;;;;;2.88;2.60;;;;;;;;;;4954895;28;20353;-86
2021/08/29 10:02:20;;;;;;;5.38;3.65;;;;;;;;;;4966617;28;20435;-86
2021/08/29 10:04:46;;;;;;;;;;;;;;;;;;4965338;28;20101;-86
2021/08/29 10:07:18;;;;;;;3.85;3.30;;;;;;;;;;4960114;28;20591;-86
2021/08/29 10:09:47;;;;;;;6.68;3.58;;;;;;;;;;4970959;28;20554;-85
2021/08/29 10:12:13;;;;;;;4.97;3.08;;;;;;;;;;4960748;28;20023;-87
2021/08/29 10:14:39;;;;;;;3.65;2.92;;;;;;;;;;4970399;28;20023;-86
2021/08/29 10:17:04;;;;;;;7.20;3.53;;;;;;;;;;4954546;28;20105;-85
2021/08/29 10:19:30;;;;;;;5.93;3.10;;;;;;;;;;4970707;28;20011;-86
2021/08/29 10:21:55;;;;;;;4.75;3.10;;;;;;;;;;4952718;28;20378;-85
2021/08/29 10:24:22;;;;;;;5.35;4.15;;;;;;;;;;4960923;28;20061;-86
2021/08/29 10:26:50;;;;;;;4.72;3.63;;;;;;;;;;4963979;28;20410;-86
2021/08/29 10:29:22;;;;;;;2.92;2.60;;;;;;;;;;4957638;28;20355;-86
2021/08/29 10:32:02;;;;;;;5.97;2.88;;;;;;;;;;4952823;28;20529;-87
2021/08/29 10:34:30;;;;;;;4.68;2.83;;;;;;;;;;4950882;28;20425;-87
2021/08/29 10:36:56;;;;;;;4.35;3.00;;;;;;;;;;4959839;28;20038;-87
2021/08/29 10:39:22;;;;;;;2.90;2.58;;;;;;;;;;4960270;28;20482;-88
2021/08/29 10:41:47;;;;;;;5.15;3.10;;;;;;;;;;4953231;28;20031;-86
2021/08/29 10:44:12;;;;;;;11.35;5.10;;;;;;;;;;4969088;28;20549;-87
2021/08/29 10:46:43;;;;;;;4.30;3.28;;;;;;;;;;4971764;28;20089;-85
2021/08/29 10:49:08;;;;;;;5.82;3.63;;;;;;;;;;4971633;28;20022;-86
2021/08/29 10:51:34;;;;;;;3.10;2.80;;;;;;;;;;4971455;28;20034;-86
2021/08/29 10:53:59;;;;;;;4.43;3.10;;;;;;;;;;4971401;28;20353;-86
2021/08/29 10:56:29;;;;;;;5.97;3.10;;;;;;;;;;4971478;28;20102;-86
2021/08/29 10:59:06;;;;;;;4.85;3.55;;;;;;;;;;4970757;28;20026;-83
2021/08/29 11:01:35;;;;;;;3.85;2.90;;;;;;;;;;4962727;28;20091;-90
2021/08/29 11:04:19;;;;;;;4.85;3.55;;;;;;;;;;4964319;28;20244;-88
2021/08/29 11:06:45;;;;;;;7.10;3.00;;;;;;;;;;4981751;28;20023;-90
2021/08/29 11:09:29;;;;;;;4.80;3.35;;;;;;;;;;4977083;28;20022;-90
2021/08/29 11:11:54;;;;;;;4.05;2.90;;;;;;;;;;4977632;28;20026;-90
2021/08/29 11:14:38;;;;;;;3.27;2.50;;;;;;;;;;4955108;28;20023;-91
2021/08/29 11:17:30;;;;;;;3.65;3.17;;;;;;;;;;4957187;28;20031;-91
2021/08/29 11:20:02;;;;;;;6.90;3.88;;;;;;;;;;4972222;28;20100;-91
2021/08/29 11:22:27;;;;;;;3.22;2.80;;;;;;;;;;4959952;28;20647;-90
2021/08/29 11:25:11;;;;;;;4.00;2.47;;;;;;;;;;4974067;28;20022;-90
2021/08/29 11:30:05;;;;;;;3.17;2.60;;;;;;;;;;4971288;28;20027;-91
2021/08/29 11:32:32;;;;;;;3.15;2.70;;;;;;;;;;4975607;28;20018;-91
2021/08/29 11:35:04;;;;;;;3.10;2.80;;;;;;;;;;4974424;28;20042;-89
2021/08/29 11:37:30;;;;;;;2.95;2.25;;;;;;;;;;4969483;28;20015;-90
2021/08/29 11:39:59;;;;;;;3.53;2.50;;;;;;;;;;4989723;28;20023;-91
2021/08/29 11:42:24;;;;;;;3.58;2.63;;;;;;;;;;4973677;28;20334;-91
2021/08/29 11:44:50;;;;;;;3.97;2.90;;;;;;;;;;4975524;28;20046;-90
2021/08/29 11:47:16;;;;;;;4.38;2.80;;;;;;;;;;4967660;28;20274;-91
2021/08/29 11:49:41;;;;;;;3.03;2.63;;;;;;;;;;4958611;28;20024;-90
2021/08/29 11:52:06;;;;;;;2.72;2.50;;;;;;;;;;4959369;28;20089;-90
2021/08/29 11:54:32;;;;;;;3.35;2.50;;;;;;;;;;4953031;29;20030;-90
2021/08/29 11:56:58;;;;;;;2.97;2.67;;;;;;;;;;4968764;28;20030;-89
2021/08/29 11:59:28;;;;;;;4.78;3.47;;;;;;;;;;4960519;28;20033;-89
2021/08/29 12:01:54;;;;;;;5.82;3.03;;;;;;;;;;4970005;28;20011;-89
2021/08/29 12:04:20;;;;;;;3.67;3.10;;;;;;;;;;4972478;28;20062;-91
2021/08/29 12:06:52;;;;;;;4.22;3.15;;;;;;;;;;4968910;28;20587;-87
2021/08/29 12:09:21;;;;;;;6.47;2.83;;;;;;;;;;4962343;28;20262;-87
2021/08/29 12:11:46;;;;;;;4.00;2.83;;;;;;;;;;4962185;28;20659;-88
2021/08/29 12:14:13;;;;;;;4.07;2.70;;;;;;;;;;4968565;28;20054;-87
2021/08/29 12:16:39;;;;;;;3.25;2.78;;;;;;;;;;4957532;28;20030;-88
2021/08/29 12:19:10;;;;;;;3.00;2.50;;;;;;;;;;4957227;28;20414;-89
2021/08/29 12:21:35;;;;;;;4.00;2.72;;;;;;;;;;4960882;28;20371;-88
2021/08/29 12:24:01;;;;;;;3.97;2.75;;;;;;;;;;4957467;28;20074;-90
2021/08/29 12:26:29;;;;;;;5.57;3.35;;;;;;;;;;4965552;28;20071;-89
2021/08/29 12:29:01;;;;;;;4.68;2.80;;;;;;;;;;4963323;28;20042;-89
2021/08/29 12:31:27;;;;;;;4.03;3.03;;;;;;;;;;4969279;28;20513;-89
2021/08/29 12:33:53;;;;;;;5.78;3.08;;;;;;;;;;4962604;28;20551;-89
2021/08/29 12:36:21;;;;;;;4.00;3.17;;;;;;;;;;4956578;28;20478;-90
2021/08/29 12:38:52;;;;;;;4.80;3.25;;;;;;;;;;4962797;28;20426;-89
2021/08/29 12:41:17;;;;;;;5.78;3.38;;;;;;;;;;4966084;28;20035;-90
2021/08/29 12:43:43;;;;;;;3.70;2.97;;;;;;;;;;4958163;28;20055;-88
2021/08/29 12:46:08;;;;;;;4.35;3.00;;;;;;;;;;4956813;28;21010;-90
2021/08/29 12:48:34;;;;;;;3.92;2.92;;;;;;;;;;4956123;28;20470;-93
2021/08/29 12:51:03;;;;;;;6.63;3.28;;;;;;;;;;4957818;28;20025;-90
2021/08/29 12:53:29;;;;;;;4.50;2.80;;;;;;;;;;4957498;29;20413;-91
2021/08/29 12:55:56;;;;;;;4.50;3.40;;;;;;;;;;4952816;28;20046;-92
2021/08/29 12:58:25;;;;;;;3.63;3.00;;;;;;;;;;4956182;28;20015;-91
2021/08/29 13:00:55;;;;;;;4.63;3.40;;;;;;;;;;4956430;29;20307;-90
2021/08/29 13:03:23;;;;;;;3.53;3.05;;;;;;;;;;4957590;29;20062;-90
2021/08/29 13:05:50;;;;;;;3.38;2.83;;;;;;;;;;4960080;29;20118;-91
2021/08/29 13:08:16;;;;;;;4.63;3.30;;;;;;;;;;4961770;29;20027;-90
2021/08/29 13:11:01;;;;;;;5.10;3.08;;;;;;;;;;4960192;29;20391;-91
2021/08/29 13:13:40;;;;;;;5.43;3.95;;;;;;;;;;4956794;29;20023;-90
2021/08/29 13:16:07;;;;;;;3.78;3.17;;;;;;;;;;4959037;29;20015;-92
2021/08/29 13:18:32;;;;;;;4.90;3.13;;;;;;;;;;4961161;28;20026;-89
2021/08/29 13:20:58;;;;;;;4.68;3.30;;;;;;;;;;4956113;29;20031;-90
2021/08/29 13:23:33;;;;;;;4.45;3.33;;;;;;;;;;4955924;28;20038;-90
2021/08/29 13:25:59;;;;;;;5.22;3.83;;;;;;;;;;4954209;28;20035;-91
2021/08/29 13:28:25;;;;;;;6.03;4.53;;;;;;;;;;4958449;28;20490;-92
2021/08/29 13:31:04;;;;;;;6.85;4.38;;;;;;;;;;4957299;28;20453;-92
2021/08/29 13:33:30;;;;;;;5.70;4.03;;;;;;;;;;4950412;28;20419;-94
2021/08/29 13:35:59;;;;;;;6.85;3.75;;;;;;;;;;4955557;29;20019;-90
2021/08/29 13:38:28;;;;;;;4.15;3.63;;;;;;;;;;4949345;29;20018;-90
2021/08/29 13:40:54;;;;;;;5.80;4.13;;;;;;;;;;4950933;29;20061;-87
2021/08/29 13:43:24;;;;;;;4.85;3.42;;;;;;;;;;4964896;28;20373;-90
2021/08/29 13:45:49;;;;;;;4.20;3.20;;;;;;;;;;4956603;28;20023;-88
2021/08/29 13:48:14;;;;;;;6.80;4.30;;;;;;;;;;4967870;28;20029;-88
2021/08/29 13:50:39;;;;;;;6.20;3.83;;;;;;;;;;4956240;28;20081;-87
2021/08/29 13:53:06;;;;;;;4.82;3.55;;;;;;;;;;4962854;28;20026;-88
2021/08/29 13:55:33;;;;;;;3.83;3.08;;;;;;;;;;4954478;28;20199;-90
2021/08/29 13:57:58;;;;;;;5.88;2.92;;;;;;;;;;4965637;28;20018;-89
2021/08/29 14:00:24;;;;;;;4.30;3.33;;;;;;;;;;4968207;28;20026;-89
2021/08/29 14:02:49;;;;;;;5.38;3.40;;;;;;;;;;4968070;28;20053;-88
2021/08/29 14:05:17;;;;;;;3.75;3.05;;;;;;;;;;4967333;28;20111;-89
2021/08/29 14:07:42;;;;;;;5.20;3.17;;;;;;;;;;4957573;28;20031;-88
2021/08/29 14:10:07;;;;;;;3.63;3.30;;;;;;;;;;4955786;28;20038;-90
2021/08/29 14:12:33;;;;;;;8.63;3.78;;;;;;;;;;4955149;28;20303;-90
2021/08/29 14:14:58;;;;;;;6.50;3.58;;;;;;;;;;4961038;28;20098;-90
2021/08/29 14:17:24;;;;;;;5.15;3.55;;;;;;;;;;4963765;28;20114;-91
2021/08/29 14:19:51;;;;;;;4.43;3.15;;;;;;;;;;4956803;28;20057;-90
2021/08/29 14:22:17;;;;;;;3.25;2.63;;;;;;;;;;4968449;28;20031;-91
2021/08/29 14:24:42;;;;;;;3.85;2.80;;;;;;;;;;4963063;28;20011;-90
2021/08/29 14:27:07;;;;;;;4.15;2.80;;;;;;;;;;4958917;28;20073;-90
2021/08/29 14:29:34;;;;;;;3.30;2.40;;;;;;;;;;4962624;28;20058;-90
2021/08/29 14:32:05;;;;;;;4.57;2.85;;;;;;;;;;4967628;28;20029;-92
2021/08/29 14:34:31;;;;;;;3.20;2.70;;;;;;;;;;5005855;28;20138;-91
2021/08/29 14:36:58;;;;;;;5.22;2.83;;;;;;;;;;4961080;28;20058;-87
2021/08/29 14:39:24;;;;;;;3.72;2.70;;;;;;;;;;4972449;28;20041;-89
2021/08/29 14:41:49;;;;;;;3.03;2.72;;;;;;;;;;4975600;28;20023;-89